Maryland Heights, Missouri
Current Conditions -  °F | °C
As of 7:51 AM on Friday 19 Dec 2014 (Local Time) from KSTL Reporting Station
Haze Haze  
Wind Chill: 26°   Ceiling: 6500
Heat Index: 32°   Visibility: 5mi
Dew Point: 26°   Wind: 6mph
Humidity: 79%   Direction: 90°E
Pressure: 30.31"   Gusts: NA
Location:  38.72°N, 90.44°W
Report Text: KSTL 191351Z 09005KT 5SM HZ FEW027 BKN065 00/M03 A3031 RMK AO2 SLP274 T00001033
Loading
Personal Weather Stations






























Interactive Weather Map New forecast layout! Learn more

10-Day Weather Forecast

Advertisements
Track Severe Weather on mobile